Le Touquet-Côte d'Opale Airport

Airport
ICAO code: 
LFAT
IATA Code: 
LTQ
Summary
ICAO Region: 
EUR
Territory: 
Location: 
, Nord-Pas-de-Calais
Serving: 
Le Tourquet
Elevation: 
36 ft
Coordinates: 
Aerial View: 
50° 31' 2.586" N, 1° 37' 14.113" E
Metar
Observation
LFAT 302130Z AUTO 23015KT 200V270 9999 BKN014 BKN019 OVC026 11/10 Q1007
Station
Le Touquet
Date/Time
2021-11-30 21:30:00
Wind direction
230°
Wind speed
15 kts
Lowest cloud amount
broken clouds
Temperature
11°C
Dew point
10°C
Humidity
93%
QNH
1007 hPa
Weather condition
n/a

Runways

Designator Length Width Surface Rops
6/24 0 0 UNK No/No
14/32 1850 40 ASP No/No
Airport map: 
Aerial View: 

SKYbrary Partners:

Safety knowledge contributed by: